Time;durP1;ratioP1;P1;durP2;ratioP2;P2;SDS_P1;SDS_P2;PMS_P1;PMS_P2;Temp;Humidity;BMP_temperature;BMP_pressure;BME280_temperature;BME280_humidity;BME280_pressure;Samples;Min_cycle;Max_cycle;Signal;HPM_P1;HPM_P2
2021/10/30 00:01:48;;;;;;;15.73;9.50;;;;;;;;;;5021773;28;20487;-89
2021/10/30 00:04:16;;;;;;;14.07;9.33;;;;;;;;;;5017179;28;20472;-90
2021/10/30 00:06:43;;;;;;;12.07;9.00;;;;;;;;;;5019922;28;20452;-93
2021/10/30 00:09:10;;;;;;;14.97;9.20;;;;;;;;;;5019161;28;20448;-89
2021/10/30 00:11:37;;;;;;;10.53;8.97;;;;;;;;;;5000377;28;20476;-90
2021/10/30 00:14:07;;;;;;;11.30;8.90;;;;;;;;;;4999390;28;20806;-89
2021/10/30 00:16:37;;;;;;;11.80;9.60;;;;;;;;;;5002315;28;20449;-87
2021/10/30 00:19:05;;;;;;;13.23;9.87;;;;;;;;;;5002772;28;20448;-88
2021/10/30 00:21:32;;;;;;;17.13;10.50;;;;;;;;;;5000292;28;20437;-94
2021/10/30 00:24:00;;;;;;;15.50;10.90;;;;;;;;;;4998347;28;20449;-87
2021/10/30 00:26:30;;;;;;;18.43;11.07;;;4.50;99.90;;;;;;4998746;28;20460;-90
2021/10/30 00:28:58;;;;;;;14.30;10.50;;;;;;;;;;5001052;28;20953;-88
2021/10/30 00:31:25;;;;;;;15.37;10.77;;;;;;;;;;5000728;28;20500;-88
2021/10/30 00:33:55;;;;;;;14.63;9.83;;;;;;;;;;5000855;28;20493;-89
2021/10/30 00:36:26;;;;;;;14.87;9.87;;;;;;;;;;5006789;28;20484;-87
2021/10/30 00:38:56;;;;;;;12.90;9.77;;;4.30;99.90;;;;;;5003436;28;20433;-90
2021/10/30 00:41:26;;;;;;;13.20;9.77;;;;;;;;;;5001194;28;20445;-88
2021/10/30 00:43:54;;;;;;;12.07;9.27;;;;;;;;;;5002484;28;20465;-94
2021/10/30 00:46:21;;;;;;;13.03;9.50;;;;;;;;;;5000673;28;20453;-86
2021/10/30 00:48:48;;;;;;;11.33;8.23;;;;;;;;;;4997308;28;20941;-88
2021/10/30 00:51:15;;;;;;;15.43;9.43;;;;;;;;;;4998450;28;20449;-90
2021/10/30 00:53:44;;;;;;;10.93;8.77;;;;;;;;;;4999942;28;20461;-89
2021/10/30 00:56:13;;;;;;;15.20;9.67;;;4.10;99.90;;;;;;5000468;28;20457;-89
2021/10/30 00:58:41;;;;;;;13.70;9.00;;;4.20;99.90;;;;;;5000972;28;20460;-92
2021/10/30 01:01:08;;;;;;;15.83;9.57;;;;;;;;;;5002221;28;20501;-89
2021/10/30 01:03:36;;;;;;;14.43;9.53;;;;;;;;;;4997926;28;20512;-89
2021/10/30 01:06:04;;;;;;;12.07;8.87;;;;;;;;;;4998728;28;20441;-88
2021/10/30 01:08:31;;;;;;;13.40;9.70;;;;;;;;;;4998422;28;20461;-89
2021/10/30 01:11:00;;;;;;;13.07;9.40;;;;;;;;;;4998784;28;20456;-89
2021/10/30 01:13:28;;;;;;;23.50;10.67;;;;;;;;;;4999805;28;20438;-89
2021/10/30 01:15:55;;;;;;;11.70;8.30;;;;;;;;;;4997789;28;20446;-86
2021/10/30 01:18:24;;;;;;;16.20;9.60;;;4.00;99.90;;;;;;4998094;28;20449;-89
2021/10/30 01:20:53;;;;;;;10.07;8.00;;;;;;;;;;4980554;28;20504;-94
2021/10/30 01:23:20;;;;;;;15.90;8.70;;;;;;;;;;4998708;28;20495;-89
2021/10/30 01:25:47;;;;;;;14.00;8.20;;;;;;;;;;4998397;28;20458;-93
2021/10/30 01:28:14;;;;;;;10.17;7.40;;;;;;;;;;5005087;28;20468;-87
2021/10/30 01:30:41;;;;;;;12.63;9.00;;;;;;;;;;5000628;28;20451;-90
2021/10/30 01:33:09;;;;;;;10.90;8.40;;;;;;;;;;4999272;28;20457;-91
2021/10/30 01:35:38;;;;;;;12.07;8.67;;;3.80;99.90;;;;;;5002267;28;20481;-87
2021/10/30 01:38:07;;;;;;;12.87;8.33;;;;;;;;;;4996804;28;20453;-87
2021/10/30 01:40:39;;;;;;;18.97;9.10;;;3.80;99.90;;;;;;4996261;28;20555;-88
2021/10/30 01:43:07;;;;;;;11.47;7.50;;;;;;;;;;4996340;28;20497;-89
2021/10/30 01:45:34;;;;;;;9.83;7.73;;;;;;;;;;4996863;28;20460;-89
2021/10/30 01:48:01;;;;;;;14.17;9.00;;;;;;;;;;5000596;28;20453;-89
2021/10/30 01:50:28;;;;;;;10.47;8.33;;;;;;;;;;4998877;28;20473;-89
2021/10/30 01:52:59;;;;;;;11.00;7.73;;;3.60;99.90;;;;;;4996878;28;20495;-87
2021/10/30 01:55:29;;;;;;;12.47;8.50;;;3.60;99.90;;;;;;4997262;28;20555;-89
2021/10/30 01:57:56;;;;;;;11.30;7.23;;;;;;;;;;4962535;28;20445;-88
2021/10/30 02:00:23;;;;;;;13.63;8.33;;;;;;;;;;4997371;28;20457;-88
2021/10/30 02:02:51;;;;;;;11.70;8.23;;;;;;;;;;5004253;28;20477;-88
2021/10/30 02:05:18;;;;;;;10.93;7.43;;;;;;;;;;5004269;28;20453;-89
2021/10/30 02:07:45;;;;;;;11.20;7.80;;;;;;;;;;5005993;28;20452;-88
2021/10/30 02:10:13;;;;;;;12.13;7.30;;;3.60;99.90;;;;;;5003325;28;20891;-88
2021/10/30 02:12:42;;;;;;;9.30;7.07;;;3.60;99.90;;;;;;5002193;28;20504;-87
2021/10/30 02:15:09;;;;;;;11.00;7.20;;;;;;;;;;5001131;28;20524;-88
2021/10/30 02:17:37;;;;;;;9.63;7.50;;;;;;;;;;4999266;28;20450;-89
2021/10/30 02:20:06;;;;;;;10.10;7.47;;;3.60;99.90;;;;;;5004754;28;20465;-88
2021/10/30 02:22:33;;;;;;;9.73;7.20;;;;;;;;;;5004707;28;20449;-87
2021/10/30 02:25:01;;;;;;;12.67;8.20;;;;;;;;;;5003874;28;20453;-92
2021/10/30 02:27:28;;;;;;;10.60;7.40;;;;;;;;;;5003481;28;20440;-90
2021/10/30 02:29:56;;;;;;;10.30;8.40;;;;;;;;;;5004281;28;20460;-91
2021/10/30 02:32:23;;;;;;;12.80;7.47;;;;;;;;;;5003604;28;20488;-89
2021/10/30 02:34:51;;;;;;;11.77;8.60;;;;;;;;;;5002425;28;20488;-89
2021/10/30 02:37:18;;;;;;;9.43;7.50;;;;;;;;;;5002746;28;20532;-93
2021/10/30 02:39:45;;;;;;;8.83;6.70;;;;;;;;;;5003168;28;20456;-89
2021/10/30 02:42:12;;;;;;;12.00;7.97;;;;;;;;;;5003072;28;20449;-88
2021/10/30 02:44:40;;;;;;;10.37;7.80;;;;;;;;;;5003041;28;20453;-90
2021/10/30 02:47:08;;;;;;;10.00;7.60;;;;;;;;;;5004166;28;20457;-89
2021/10/30 02:49:35;;;;;;;14.17;8.00;;;;;;;;;;5003439;28;20461;-91
2021/10/30 02:52:03;;;;;;;9.80;7.10;;;;;;;;;;5005175;28;20453;-88
2021/10/30 02:54:30;;;;;;;10.87;8.17;;;;;;;;;;5004047;28;20497;-88
2021/10/30 02:56:57;;;;;;;10.57;7.27;;;;;;;;;;5005356;28;20434;-87
2021/10/30 02:59:24;;;;;;;14.00;8.47;;;;;;;;;;5006671;28;20449;-87
2021/10/30 03:01:51;;;;;;;11.13;8.17;;;;;;;;;;5002626;28;20449;-89
2021/10/30 03:04:20;;;;;;;15.40;7.80;;;;;;;;;;5002142;28;20442;-88
2021/10/30 03:06:47;;;;;;;11.70;7.83;;;;;;;;;;5002344;28;20448;-88
2021/10/30 03:09:14;;;;;;;11.20;7.30;;;;;;;;;;5002267;28;20437;-89
2021/10/30 03:11:41;;;;;;;11.17;8.00;;;;;;;;;;5002680;28;20425;-90
2021/10/30 03:14:08;;;;;;;10.57;7.87;;;;;;;;;;5002398;28;20496;-88
2021/10/30 03:16:35;;;;;;;9.57;7.27;;;;;;;;;;5002000;28;20461;-88
2021/10/30 03:19:03;;;;;;;10.37;7.53;;;;;;;;;;5002256;28;20453;-91
2021/10/30 03:21:33;;;;;;;10.60;6.73;;;;;;;;;;5002596;28;20445;-88
2021/10/30 03:24:01;;;;;;;10.37;7.77;;;;;;;;;;5005215;28;20481;-87
2021/10/30 03:26:29;;;;;;;11.00;8.00;;;;;;;;;;5002908;28;20457;-89
2021/10/30 03:28:56;;;;;;;11.33;7.80;;;;;;;;;;5002882;28;20449;-89
2021/10/30 03:31:23;;;;;;;12.30;7.63;;;;;;;;;;5003936;28;20460;-89
2021/10/30 03:33:50;;;;;;;11.40;6.90;;;;;;;;;;5002912;28;20499;-91
2021/10/30 03:36:17;;;;;;;11.67;8.00;;;;;;;;;;5005173;28;20873;-87
2021/10/30 03:38:46;;;;;;;10.03;7.53;;;;;;;;;;5004666;28;20449;-87
2021/10/30 03:41:13;;;;;;;11.40;7.90;;;;;;;;;;5003195;28;20506;-89
2021/10/30 03:43:40;;;;;;;14.13;6.90;;;;;;;;;;4999964;28;20445;-88
2021/10/30 03:46:07;;;;;;;10.17;7.77;;;;;;;;;;5002706;28;20804;-89
2021/10/30 03:48:34;;;;;;;9.90;7.20;;;;;;;;;;5004510;28;20457;-89
2021/10/30 03:51:01;;;;;;;11.00;6.93;;;;;;;;;;4995284;28;20819;-88
2021/10/30 03:53:29;;;;;;;11.10;7.10;;;;;;;;;;4997465;28;20485;-87
2021/10/30 03:55:58;;;;;;;11.10;7.87;;;3.50;99.90;;;;;;4995252;28;20461;-89
2021/10/30 03:58:25;;;;;;;10.50;8.37;;;;;;;;;;5000582;28;20452;-90
2021/10/30 04:00:52;;;;;;;17.10;8.17;;;;;;;;;;4999202;28;20458;-87
2021/10/30 04:03:19;;;;;;;11.73;8.60;;;;;;;;;;4998514;28;20537;-88
2021/10/30 04:05:46;;;;;;;17.30;8.67;;;;;;;;;;4999209;28;20461;-89
2021/10/30 04:08:18;;;;;;;12.83;7.93;;;;;;;;;;4999133;28;20942;-87
2021/10/30 04:10:45;;;;;;;11.30;7.00;;;;;;;;;;4998665;28;20476;-88
2021/10/30 04:13:14;;;;;;;9.87;7.53;;;;;;;;;;4999264;28;20825;-89
2021/10/30 04:15:41;;;;;;;13.20;7.60;;;;;;;;;;5000375;28;20457;-88
2021/10/30 04:18:08;;;;;;;11.33;7.70;;;;;;;;;;5003712;28;20453;-90
2021/10/30 04:20:35;;;;;;;9.23;6.93;;;;;;;;;;5003526;28;20442;-90
2021/10/30 04:23:02;;;;;;;12.53;8.17;;;;;;;;;;5003496;28;20952;-88
2021/10/30 04:25:29;;;;;;;13.90;7.37;;;;;;;;;;5004861;28;20437;-88
2021/10/30 04:27:57;;;;;;;10.50;7.13;;;;;;;;;;5007430;28;20445;-89
2021/10/30 04:30:25;;;;;;;10.50;7.47;;;;;;;;;;5002273;28;20449;-87
2021/10/30 04:32:53;;;;;;;11.07;7.83;;;;;;;;;;4984090;28;20544;-88
2021/10/30 04:35:20;;;;;;;10.20;7.20;;;;;;;;;;5004085;28;20480;-89
2021/10/30 04:37:47;;;;;;;9.13;6.63;;;;;;;;;;5003173;28;20452;-87
2021/10/30 04:40:14;;;;;;;12.50;7.53;;;;;;;;;;5001911;28;20437;-88
2021/10/30 04:42:41;;;;;;;11.03;7.17;;;;;;;;;;5000694;28;20455;-89
2021/10/30 04:45:09;;;;;;;11.17;7.33;;;;;;;;;;5002361;28;20449;-88
2021/10/30 04:47:37;;;;;;;13.20;8.13;;;;;;;;;;5005262;28;20445;-89
2021/10/30 04:50:05;;;;;;;9.60;7.43;;;;;;;;;;5003987;28;20515;-88
2021/10/30 04:52:32;;;;;;;11.10;7.70;;;;;;;;;;5004244;28;20440;-90
2021/10/30 04:54:59;;;;;;;12.27;8.30;;;;;;;;;;5003538;28;20492;-91
2021/10/30 04:57:26;;;;;;;14.20;6.80;;;;;;;;;;5003835;28;20472;-89
2021/10/30 04:59:53;;;;;;;9.67;7.37;;;;;;;;;;5004960;28;20444;-89
2021/10/30 05:02:21;;;;;;;10.87;8.00;;;;;;;;;;5006099;28;20468;-88
2021/10/30 05:04:49;;;;;;;10.70;8.10;;;2.60;99.90;;;;;;5004827;28;20450;-90
2021/10/30 05:07:16;;;;;;;13.07;7.43;;;;;;;;;;5004260;28;20438;-88
2021/10/30 05:09:43;;;;;;;15.03;8.77;;;;;;;;;;5003616;28;20453;-89
2021/10/30 05:12:10;;;;;;;9.93;7.77;;;;;;;;;;5002796;28;20476;-89
2021/10/30 05:14:38;;;;;;;14.87;8.37;;;;;;;;;;5003764;28;21003;-88
2021/10/30 05:17:05;;;;;;;13.27;8.63;;;;;;;;;;5002941;28;20476;-89
2021/10/30 05:19:32;;;;;;;11.37;7.23;;;;;;;;;;5004947;28;20433;-87
2021/10/30 05:22:01;;;;;;;9.67;7.87;;;;;;;;;;5005047;28;20449;-88
2021/10/30 05:24:28;;;;;;;16.03;9.00;;;;;;;;;;5003828;28;20449;-89
2021/10/30 05:26:55;;;;;;;11.77;7.93;;;;;;;;;;5002047;28;20468;-87
2021/10/30 05:29:22;;;;;;;10.90;7.33;;;;;;;;;;5003338;28;20446;-89
2021/10/30 05:31:49;;;;;;;12.10;8.63;;;;;;;;;;5002686;28;20445;-89
2021/10/30 05:34:17;;;;;;;13.30;8.80;;;;;;;;;;5002203;28;20492;-88
2021/10/30 05:36:45;;;;;;;9.63;7.77;;;2.50;99.90;;;;;;5003076;28;20445;-87
2021/10/30 05:39:16;;;;;;;12.47;8.20;;;2.40;99.90;;;;;;5004331;28;20456;-88
2021/10/30 05:41:44;;;;;;;10.10;8.23;;;2.50;99.90;;;;;;5003745;28;20457;-87
2021/10/30 05:44:12;;;;;;;13.13;9.40;;;2.50;99.90;;;;;;5003990;28;20444;-87
2021/10/30 05:46:42;;;;;;;10.77;8.43;;;2.60;99.90;;;;;;5003628;28;20443;-89
2021/10/30 05:49:10;;;;;;;13.43;8.90;;;;;;;;;;5002389;28;20457;-89
2021/10/30 05:51:37;;;;;;;12.33;8.40;;;;;;;;;;5002476;28;20446;-87
2021/10/30 05:54:05;;;;;;;13.17;8.50;;;;;;;;;;5003980;28;20547;-87
2021/10/30 05:56:33;;;;;;;13.43;9.40;;;;;;;;;;5010284;28;20480;-87
2021/10/30 05:59:01;;;;;;;11.20;8.03;;;;;;;;;;5025525;28;20452;-90
2021/10/30 06:01:28;;;;;;;14.23;9.17;;;;;;;;;;5021895;28;20468;-90
2021/10/30 06:03:56;;;;;;;9.93;7.80;;;;;;;;;;5023727;28;20531;-88
2021/10/30 06:06:23;;;;;;;13.00;8.80;;;;;;;;;;5024927;28;20448;-88
2021/10/30 06:08:50;;;;;;;16.90;10.17;;;;;;;;;;5029666;28;20459;-89
2021/10/30 06:11:17;;;;;;;16.33;10.27;;;;;;;;;;5020919;28;20448;-88
2021/10/30 06:13:45;;;;;;;20.67;10.47;;;;;;;;;;5024464;28;20476;-88
2021/10/30 06:16:13;;;;;;;17.30;10.60;;;;;;;;;;5022620;28;20445;-89
2021/10/30 06:18:40;;;;;;;16.03;10.23;;;;;;;;;;5024869;28;20458;-88
2021/10/30 06:21:07;;;;;;;13.97;9.57;;;;;;;;;;5024808;28;20472;-88
2021/10/30 06:23:36;;;;;;;15.60;10.43;;;;;;;;;;5023692;28;20424;-87
2021/10/30 06:26:03;;;;;;;14.90;10.73;;;;;;;;;;5023780;23;20889;-89
2021/10/30 06:28:30;;;;;;;15.60;10.67;;;;;;;;;;4986217;28;20454;-87
2021/10/30 06:30:59;;;;;;;17.83;11.33;;;;;;;;;;4986754;28;20477;-88
2021/10/30 06:33:26;;;;;;;15.40;11.37;;;;;;;;;;4988338;28;20500;-89
2021/10/30 06:35:53;;;;;;;16.10;10.63;;;;;;;;;;4987117;28;20458;-88
2021/10/30 06:38:20;;;;;;;16.03;11.33;;;;;;;;;;4987649;28;20482;-88
2021/10/30 06:40:48;;;;;;;16.87;11.00;;;;;;;;;;4986146;28;20548;-89
2021/10/30 06:43:15;;;;;;;18.20;12.37;;;;;;;;;;4987666;28;20442;-89
2021/10/30 06:45:42;;;;;;;14.63;10.77;;;;;;;;;;4985639;28;20953;-88
2021/10/30 06:48:11;;;;;;;15.40;11.00;;;;;;;;;;4986801;28;20472;-87
2021/10/30 06:50:38;;;;;;;17.77;12.30;;;;;;;;;;4986528;28;20454;-88
2021/10/30 06:53:05;;;;;;;20.20;12.83;;;;;;;;;;4994641;28;20434;-88
2021/10/30 06:55:32;;;;;;;14.60;11.83;;;;;;;;;;4988701;28;20513;-90
2021/10/30 06:57:59;;;;;;;16.50;12.00;;;;;;;;;;4979737;28;20548;-88
2021/10/30 07:00:26;;;;;;;19.13;11.80;;;;;;;;;;4982156;28;20965;-87
2021/10/30 07:02:53;;;;;;;18.57;11.90;;;;;;;;;;4983710;28;20446;-89
2021/10/30 07:05:22;;;;;;;17.70;11.60;;;;;;;;;;4984701;28;20451;-89
2021/10/30 07:07:49;;;;;;;17.10;11.97;;;;;;;;;;4982795;28;20435;-88
2021/10/30 07:10:17;;;;;;;18.37;12.77;;;;;;;;;;4980820;28;20457;-88
2021/10/30 07:12:44;;;;;;;18.03;12.77;;;;;;;;;;4977083;28;20877;-89
2021/10/30 07:15:13;;;;;;;18.80;12.50;;;5.60;99.90;;;;;;4978689;28;20504;-92
2021/10/30 07:17:41;;;;;;;22.47;12.40;;;;;;;;;;4975747;28;20474;-90
2021/10/30 07:20:09;;;;;;;15.60;12.40;;;6.30;99.90;;;;;;4976692;28;20457;-89
2021/10/30 07:22:44;;;;;;;14.90;10.40;;;6.70;99.90;;;;;;4980685;28;20466;-90
2021/10/30 07:25:12;;;;;;;16.63;10.10;;;;;;;;;;4981258;28;20457;-89
2021/10/30 07:27:39;;;;;;;17.03;9.80;;;;;;;;;;4975296;28;20598;-89
2021/10/30 07:30:06;;;;;;;13.77;9.67;;;;;;;;;;4978220;28;20462;-92
2021/10/30 07:32:34;;;;;;;11.00;9.47;;;;;;;;;;4977425;28;20450;-90
2021/10/30 07:35:03;;;;;;;11.67;9.10;;;;;;;;;;4981085;28;20569;-90
2021/10/30 07:37:30;;;;;;;13.30;9.50;;;;;;;;;;4980779;28;20474;-88
2021/10/30 07:39:59;;;;;;;13.07;9.17;;;7.60;99.90;;;;;;4977223;28;20948;-91
2021/10/30 07:42:26;;;;;;;11.60;9.50;;;;;;;;;;4980554;28;20473;-94
2021/10/30 07:44:53;;;;;;;17.67;9.60;;;;;;;;;;4979408;28;20461;-92
2021/10/30 07:47:21;;;;;;;22.53;11.00;;;;;;;;;;4981321;28;20469;-89
2021/10/30 07:49:48;;;;;;;16.63;9.40;;;;;;;;;;4981439;28;20443;-89
2021/10/30 07:52:15;;;;;;;13.80;10.10;;;;;;;;;;4985619;28;20442;-90
2021/10/30 07:54:43;;;;;;;12.70;9.73;;;;;;;;;;4987256;28;20532;-89
2021/10/30 07:57:12;;;;;;;16.93;9.77;;;;;;;;;;4983258;28;20454;-91
2021/10/30 07:59:54;;;;;;;16.10;10.40;;;;;;;;;;4988693;28;20461;-94
2021/10/30 08:02:22;;;;;;;13.43;9.97;;;;;;;;;;4989714;28;20442;-91
2021/10/30 08:04:49;;;;;;;14.80;10.23;;;;;;;;;;4989664;28;20465;-90
2021/10/30 08:07:17;;;;;;;14.73;9.30;;;;;;;;;;4986213;28;20446;-90
2021/10/30 08:09:45;;;;;;;11.83;9.60;;;8.50;99.90;;;;;;4987202;28;20897;-90
2021/10/30 08:12:14;;;;;;;11.70;9.40;;;;;;;;;;4987334;28;20438;-91
2021/10/30 08:14:42;;;;;;;13.30;10.60;;;8.90;99.90;;;;;;4987406;28;20993;-90
2021/10/30 08:17:09;;;;;;;11.40;10.00;;;9.00;99.90;;;;;;4988328;28;20430;-90
2021/10/30 08:19:36;;;;;;;22.43;10.60;;;;;;;;;;4987813;28;20446;-92
2021/10/30 08:22:04;;;;;;;18.03;11.00;;;9.40;99.90;;;;;;4987654;28;20450;-91
2021/10/30 08:24:31;;;;;;;13.77;10.97;;;;;;;;;;4987064;28;20457;-90
2021/10/30 08:26:58;;;;;;;13.07;10.50;;;;;;;;;;4984581;28;20977;-91
2021/10/30 08:29:27;;;;;;;11.97;10.30;;;9.60;99.90;;;;;;4987887;28;20450;-91
2021/10/30 08:31:56;;;;;;;15.67;11.97;;;9.40;99.90;;;;;;5012765;23;20500;-90
2021/10/30 08:34:23;;;;;;;14.80;10.67;;;;;;;;;;5004209;28;20484;-90
2021/10/30 08:36:50;;;;;;;11.77;10.47;;;;;;;;;;5003663;28;20468;-89
2021/10/30 08:39:17;;;;;;;15.73;9.83;;;;;;;;;;5004740;28;20445;-89
2021/10/30 08:41:44;;;;;;;18.10;10.83;;;;;;;;;;5003557;28;20452;-91
2021/10/30 08:44:11;;;;;;;16.30;11.27;;;;;;;;;;5006495;28;20433;-87
2021/10/30 08:46:40;;;;;;;16.33;11.10;;;;;;;;;;5001853;28;20479;-88
2021/10/30 08:49:10;;;;;;;27.10;11.07;;;;;;;;;;4998671;28;20449;-89
2021/10/30 08:51:38;;;;;;;16.23;11.53;;;;;;;;;;5000873;28;20457;-91
2021/10/30 08:54:05;;;;;;;25.30;11.27;;;;;;;;;;5000011;28;20454;-88
2021/10/30 08:56:33;;;;;;;14.27;10.87;;;;;;;;;;4997086;28;20441;-89
2021/10/30 08:59:00;;;;;;;13.90;11.00;;;9.30;99.90;;;;;;4997950;28;20460;-91
2021/10/30 09:01:29;;;;;;;13.53;9.93;;;;;;;;;;4994446;28;20504;-90
2021/10/30 09:04:01;;;;;;;12.63;10.80;;;9.40;99.90;;;;;;4999504;28;20505;-92
2021/10/30 09:06:43;;;;;;;23.87;11.70;;;9.40;99.90;;;;;;5006438;28;20499;-92
2021/10/30 09:09:14;;;;;;;14.43;10.17;;;9.10;99.90;;;;;;5003319;28;20458;-87
2021/10/30 09:11:43;;;;;;;15.00;10.97;;;;;;;;;;5002829;28;20449;-89
2021/10/30 09:14:18;;;;;;;13.63;10.73;;;;;;;;;;5002249;28;21043;-92
2021/10/30 09:16:45;;;;;;;13.90;10.40;;;;;;;;;;5002884;28;20453;-94
2021/10/30 09:19:30;;;;;;;20.83;11.40;;;9.20;99.90;;;;;;4997958;28;20456;-93
2021/10/30 09:22:03;;;;;;;21.13;11.30;;;9.20;99.90;;;;;;4997159;28;20440;-91
2021/10/30 09:24:31;;;;;;;18.50;11.53;;;;;;;;;;5001460;28;20473;-93
2021/10/30 09:26:58;;;;;;;15.23;10.03;;;;;;;;;;5000403;28;20843;-91
2021/10/30 09:29:25;;;;;;;12.77;10.93;;;;;;;;;;5009589;28;20446;-91
2021/10/30 09:31:52;;;;;;;15.97;11.60;;;;;;;;;;5003457;28;20481;-91
2021/10/30 09:34:28;;;;;;;16.13;11.70;;;9.30;99.90;;;;;;4997745;28;20437;-89
2021/10/30 09:36:58;;;;;;;13.87;11.10;;;9.30;99.90;;;;;;4997019;28;20473;-91
2021/10/30 09:39:25;;;;;;;15.13;10.20;;;;;;;;;;4997314;28;20949;-93
2021/10/30 09:41:52;;;;;;;14.03;10.70;;;;;;;;;;4995554;28;20453;-93
2021/10/30 09:44:24;;;;;;;11.93;9.40;;;9.40;99.90;;;;;;5011579;28;20449;-91
2021/10/30 09:46:53;;;;;;;12.13;10.80;;;9.40;99.90;;;;;;4998445;28;20457;-90
2021/10/30 09:49:23;;;;;;;12.70;10.03;;;9.40;99.90;;;;;;5000317;28;20437;-89
2021/10/30 09:51:53;;;;;;;18.40;14.30;;;9.40;99.90;;;;;;5003955;28;20469;-91
2021/10/30 09:54:32;;;;;;;21.40;15.57;;;9.30;99.90;;;;;;5003605;28;20468;-91
2021/10/30 09:56:59;;;;;;;18.77;15.50;;;;;;;;;;4999728;28;20481;-90
2021/10/30 09:59:27;;;;;;;30.37;25.17;;;;;;;;;;5014184;28;20464;-93
2021/10/30 10:01:54;;;;;;;26.80;23.00;;;;;;;;;;5016263;28;20443;-89
2021/10/30 10:04:23;;;;;;;28.93;20.50;;;9.60;99.90;;;;;;5010808;28;20448;-91
2021/10/30 10:07:01;;;;;;;20.67;15.80;;;;;;;;;;5028542;28;20445;-90
2021/10/30 10:09:30;;;;;;;14.43;11.60;;;9.60;99.90;;;;;;5002042;28;20445;-89
2021/10/30 10:11:58;;;;;;;17.03;12.57;;;;;;;;;;4997707;28;20453;-94
2021/10/30 10:14:25;;;;;;;14.17;11.53;;;;;;;;;;5006319;28;20449;-88
2021/10/30 10:16:53;;;;;;;14.67;12.13;;;9.50;99.90;;;;;;5007324;28;20472;-89
2021/10/30 10:19:21;;;;;;;16.73;12.30;;;;;;;;;;5100263;23;20493;-88
2021/10/30 10:21:50;;;;;;;17.77;12.17;;;9.60;99.90;;;;;;5068008;28;20573;-90
2021/10/30 10:24:35;;;;;;;15.13;12.33;;;9.60;99.90;;;;;;5092122;22;20488;-91
2021/10/30 10:27:04;;;;;;;14.83;10.97;;;9.60;99.90;;;;;;5095101;28;20507;-89
2021/10/30 10:29:34;;;;;;;16.27;12.60;;;9.70;99.90;;;;;;5102972;28;20823;-89
2021/10/30 10:32:02;;;;;;;15.37;12.17;;;9.80;99.90;;;;;;5101759;28;20439;-89
2021/10/30 10:34:34;;;;;;;16.30;11.63;;;9.80;99.90;;;;;;5101600;28;20451;-89
2021/10/30 10:37:21;;;;;;;13.67;11.87;;;9.90;99.90;;;;;;5098029;28;20449;-89
2021/10/30 10:39:53;;;;;;;16.40;11.13;;;10.00;99.90;;;;;;5098788;28;20460;-88
2021/10/30 10:42:41;;;;;;;14.80;11.20;;;10.10;99.90;;;;;;5098240;28;20451;-90
2021/10/30 10:45:09;;;;;;;16.53;11.63;;;10.10;99.90;;;;;;5104408;28;20486;-90
2021/10/30 10:47:59;;;;;;;15.90;11.20;;;10.20;99.90;;;;;;5103401;28;20455;-88
2021/10/30 10:50:40;;;;;;;20.03;11.30;;;10.20;99.90;;;;;;5099362;28;20811;-89
2021/10/30 10:53:18;;;;;;;18.63;10.90;;;10.20;99.90;;;;;;5098556;28;20919;-91
2021/10/30 10:56:16;;;;;;;18.73;12.20;;;10.10;99.90;;;;;;5095523;28;20764;-89
2021/10/30 10:59:13;;;;;;;15.30;11.00;;;10.20;99.90;;;;;;5106432;28;20452;-89
2021/10/30 11:01:41;;;;;;;16.40;12.30;;;;;;;;;;5100861;28;20444;-90
2021/10/30 11:04:14;;;;;;;18.10;12.30;;;10.10;99.90;;;;;;5089404;28;20454;-89
2021/10/30 11:06:46;;;;;;;20.57;12.53;;;;;;;;;;5097977;28;20950;-89
2021/10/30 11:09:14;;;;;;;15.40;11.63;;;;;;;;;;5080347;28;20446;-93
2021/10/30 11:11:45;;;;;;;14.60;11.50;;;10.10;99.90;;;;;;5086029;28;20444;-88
2021/10/30 11:14:13;;;;;;;17.77;12.60;;;;;;;;;;5097560;28;20437;-91
2021/10/30 11:16:43;;;;;;;16.97;13.27;;;10.20;99.90;;;;;;5096927;28;20495;-93
2021/10/30 11:19:17;;;;;;;15.93;12.50;;;10.20;99.90;;;;;;5078266;28;20457;-89
2021/10/30 11:22:06;;;;;;;26.23;13.10;;;10.30;99.90;;;;;;5091936;28;20448;-92
2021/10/30 11:24:33;;;;;;;34.50;14.37;;;;;;;;;;5099217;28;20481;-90
2021/10/30 11:27:07;;;;;;;24.17;13.60;;;10.50;99.90;;;;;;5097627;28;20431;-93
2021/10/30 11:29:35;;;;;;;21.10;14.03;;;10.60;99.90;;;;;;5096167;28;20451;-92
2021/10/30 11:32:06;;;;;;;17.03;11.80;;;10.40;99.90;;;;;;5094662;28;20498;-90
2021/10/30 11:34:33;;;;;;;14.43;11.93;;;;;;;;;;5096032;28;20441;-91
2021/10/30 11:37:00;;;;;;;14.60;11.93;;;;;;;;;;5098852;28;20507;-88
2021/10/30 11:39:29;;;;;;;13.17;10.73;;;10.40;99.90;;;;;;5096756;28;20448;-89
2021/10/30 11:41:56;;;;;;;16.23;12.20;;;;;;;;;;5093859;28;20457;-93
2021/10/30 11:44:25;;;;;;;15.83;11.90;;;;;;;;;;5096648;28;20440;-89
2021/10/30 11:46:56;;;;;;;15.60;11.47;;;10.40;99.90;;;;;;5096119;28;20565;-93
2021/10/30 11:49:26;;;;;;;19.10;10.70;;;10.40;99.90;;;;;;5104527;28;20440;-87
2021/10/30 11:51:53;;;;;;;15.40;10.83;;;;;;;;;;5097440;28;20452;-89
2021/10/30 11:54:23;;;;;;;16.90;10.20;;;10.30;99.90;;;;;;5095009;28;20440;-91
2021/10/30 11:56:50;;;;;;;13.43;10.80;;;10.30;99.90;;;;;;5099888;28;20547;-88
2021/10/30 11:59:17;;;;;;;18.40;10.70;;;;;;;;;;5104072;28;20452;-91
2021/10/30 12:01:46;;;;;;;19.10;12.17;;;10.20;99.90;;;;;;5103792;28;20445;-91
2021/10/30 12:04:15;;;;;;;17.53;11.83;;;10.20;99.90;;;;;;5098571;28;20441;-94
2021/10/30 12:06:45;;;;;;;20.03;11.13;;;10.30;99.90;;;;;;5098415;28;20514;-96
2021/10/30 12:09:17;;;;;;;25.50;11.73;;;10.20;99.90;;;;;;5094890;28;20812;-89
2021/10/30 12:11:44;;;;;;;12.80;10.23;;;;;;;;;;5093097;28;20445;-88
2021/10/30 12:14:12;;;;;;;16.20;11.60;;;9.90;99.90;;;;;;5096387;28;20440;-90
2021/10/30 12:16:39;;;;;;;19.60;12.37;;;9.90;99.90;;;;;;5096807;28;20491;-88
2021/10/30 12:19:08;;;;;;;16.80;13.60;;;10.20;99.90;;;;;;5099291;28;20837;-89
2021/10/30 12:21:36;;;;;;;15.53;9.10;;;9.90;99.90;;;;;;5068852;28;20445;-90
2021/10/30 12:24:09;;;;;;;15.13;9.80;;;9.80;99.90;;;;;;5092999;28;20478;-87
2021/10/30 12:26:53;;;;;;;10.70;7.73;;;9.70;99.90;;;;;;5074079;28;20511;-91
2021/10/30 12:29:24;;;;;;;12.67;8.40;;;9.80;99.90;;;;;;5073374;28;20441;-87
2021/10/30 12:32:02;;;;;;;7.63;6.73;;;9.80;99.90;;;;;;5088720;28;20888;-91
2021/10/30 12:34:31;;;;;;;9.77;6.40;;;9.70;99.90;;;;;;5075860;28;20440;-90
2021/10/30 12:37:01;;;;;;;10.03;7.13;;;9.90;99.90;;;;;;5100356;28;20488;-87
2021/10/30 12:39:30;;;;;;;7.97;6.33;;;9.90;99.90;;;;;;5109049;28;20436;-89
2021/10/30 12:42:03;;;;;;;8.13;6.80;;;9.90;99.90;;;;;;5109813;28;20424;-87
2021/10/30 12:44:31;;;;;;;8.47;7.10;;;10.00;99.90;;;;;;5101049;28;20444;-92
2021/10/30 12:47:01;;;;;;;7.23;6.53;;;10.30;99.90;;;;;;5102256;28;20437;-89
2021/10/30 12:49:33;;;;;;;8.23;6.77;;;10.00;99.90;;;;;;5100227;28;20439;-93
2021/10/30 12:52:06;;;;;;;11.20;8.20;;;10.00;99.90;;;;;;5101511;28;20449;-91
2021/10/30 12:54:34;;;;;;;13.60;8.57;;;10.00;99.90;;;;;;5098499;28;21006;-91
2021/10/30 12:57:01;;;;;;;8.70;7.40;;;;;;;;;;5097507;28;20499;-92
2021/10/30 12:59:36;;;;;;;9.50;8.17;;;9.90;99.90;;;;;;5097266;28;20437;-88
2021/10/30 13:02:04;;;;;;;11.73;8.20;;;;;;;;;;5101474;28;20440;-93
2021/10/30 13:07:27;;;;;;;11.50;8.40;;;;;;;;;;5196090;27;20530;-89
2021/10/30 13:09:57;;;;;;;9.80;8.47;;;10.40;99.90;;;;;;5182709;27;20448;-88
2021/10/30 13:12:25;;;;;;;10.93;8.70;;;;;;;;;;5178963;27;20484;-91
2021/10/30 13:14:53;;;;;;;12.00;9.03;;;;;;;;;;5184139;27;20449;-90
2021/10/30 13:17:21;;;;;;;14.17;9.03;;;;;;;;;;5177913;27;20445;-87
2021/10/30 13:19:48;;;;;;;12.00;8.97;;;;;;;;;;5184685;27;20441;-87
2021/10/30 13:22:15;;;;;;;9.60;8.60;;;;;;;;;;5175054;27;20448;-88
2021/10/30 13:24:43;;;;;;;11.23;8.60;;;10.20;99.90;;;;;;5173609;27;20438;-88
2021/10/30 13:27:11;;;;;;;9.97;7.30;;;;;;;;;;5172075;27;20493;-92
2021/10/30 13:29:38;;;;;;;12.53;9.00;;;;;;;;;;5169812;27;20453;-87
2021/10/30 13:32:06;;;;;;;16.10;11.60;;;10.20;99.90;;;;;;5169820;27;20438;-87
2021/10/30 13:34:33;;;;;;;12.00;9.53;;;;;;;;;;5172594;27;20936;-92
2021/10/30 13:37:01;;;;;;;16.17;9.17;;;;;;;;;;5172801;27;20476;-88
2021/10/30 13:39:28;;;;;;;13.60;10.40;;;;;;;;;;5173437;27;20449;-87
2021/10/30 13:41:56;;;;;;;13.67;10.20;;;9.90;99.90;;;;;;5172569;27;20433;-87
2021/10/30 13:44:24;;;;;;;11.70;9.43;;;;;;;;;;5172638;27;20453;-88
2021/10/30 13:46:51;;;;;;;11.03;9.00;;;;;;;;;;5172628;27;20488;-88
2021/10/30 13:49:18;;;;;;;13.43;9.27;;;;;;;;;;5173031;27;20449;-92
2021/10/30 13:51:45;;;;;;;15.17;9.57;;;;;;;;;;5173193;27;20837;-89
2021/10/30 13:54:12;;;;;;;10.83;8.90;;;;;;;;;;5173102;27;20441;-91
2021/10/30 13:56:39;;;;;;;13.43;9.90;;;;;;;;;;5172120;27;20441;-92
2021/10/30 13:59:08;;;;;;;11.73;9.53;;;;;;;;;;5173964;27;20444;-87
2021/10/30 14:01:35;;;;;;;11.30;9.40;;;;;;;;;;5175311;27;20449;-90
2021/10/30 14:04:02;;;;;;;13.53;9.27;;;;;;;;;;5175433;27;20510;-89